sensor_id;sensor_type;location;lat;lon;timestamp;P1;durP1;ratioP1;P2;durP2;ratioP2
36009;SDS011;22076;52.182;5.404;2022-09-09T00:02:18;1.75;;;0.82;;
36009;SDS011;22076;52.182;5.404;2022-09-09T00:04:48;2.38;;;0.90;;
36009;SDS011;22076;52.182;5.404;2022-09-09T00:07:21;1.50;;;1.00;;
36009;SDS011;22076;52.182;5.404;2022-09-09T00:09:53;1.40;;;0.75;;
36009;SDS011;22076;52.182;5.404;2022-09-09T00:12:25;1.80;;;0.90;;
36009;SDS011;22076;52.182;5.404;2022-09-09T00:15:00;0.93;;;0.75;;
36009;SDS011;22076;52.182;5.404;2022-09-09T00:17:31;3.60;;;1.40;;
36009;SDS011;22076;52.182;5.404;2022-09-09T00:20:05;3.28;;;1.05;;
36009;SDS011;22076;52.182;5.404;2022-09-09T00:22:38;1.25;;;0.73;;
36009;SDS011;22076;52.182;5.404;2022-09-09T00:25:08;2.30;;;1.00;;
36009;SDS011;22076;52.182;5.404;2022-09-09T00:27:40;2.90;;;1.20;;
36009;SDS011;22076;52.182;5.404;2022-09-09T00:30:14;1.77;;;0.80;;
36009;SDS011;22076;52.182;5.404;2022-09-09T00:32:44;2.58;;;0.98;;
36009;SDS011;22076;52.182;5.404;2022-09-09T00:35:16;3.70;;;1.23;;
36009;SDS011;22076;52.182;5.404;2022-09-09T00:37:44;3.40;;;0.95;;
36009;SDS011;22076;52.182;5.404;2022-09-09T00:40:17;1.80;;;0.90;;
36009;SDS011;22076;52.182;5.404;2022-09-09T00:42:58;1.73;;;1.20;;
36009;SDS011;22076;52.182;5.404;2022-09-09T00:45:37;2.63;;;0.95;;
36009;SDS011;22076;52.182;5.404;2022-09-09T00:48:12;3.25;;;1.02;;
36009;SDS011;22076;52.182;5.404;2022-09-09T00:50:44;1.38;;;1.02;;
36009;SDS011;22076;52.182;5.404;2022-09-09T00:53:24;3.72;;;1.70;;
36009;SDS011;22076;52.182;5.404;2022-09-09T00:56:00;2.13;;;1.10;;
36009;SDS011;22076;52.182;5.404;2022-09-09T00:58:31;2.67;;;1.35;;
36009;SDS011;22076;52.182;5.404;2022-09-09T01:00:59;3.20;;;1.20;;
36009;SDS011;22076;52.182;5.404;2022-09-09T01:03:33;3.05;;;1.50;;
36009;SDS011;22076;52.182;5.404;2022-09-09T01:06:10;3.17;;;1.70;;
36009;SDS011;22076;52.182;5.404;2022-09-09T01:08:42;4.90;;;1.73;;
36009;SDS011;22076;52.182;5.404;2022-09-09T01:11:16;3.60;;;1.10;;
36009;SDS011;22076;52.182;5.404;2022-09-09T01:13:47;5.47;;;1.95;;
36009;SDS011;22076;52.182;5.404;2022-09-09T01:16:18;3.88;;;1.52;;
36009;SDS011;22076;52.182;5.404;2022-09-09T01:18:45;5.55;;;1.60;;
36009;SDS011;22076;52.182;5.404;2022-09-09T01:21:17;3.80;;;1.75;;
36009;SDS011;22076;52.182;5.404;2022-09-09T01:23:53;2.50;;;1.33;;
36009;SDS011;22076;52.182;5.404;2022-09-09T01:26:34;2.75;;;1.50;;
36009;SDS011;22076;52.182;5.404;2022-09-09T01:29:01;4.68;;;2.13;;
36009;SDS011;22076;52.182;5.404;2022-09-09T01:31:30;4.28;;;1.95;;
36009;SDS011;22076;52.182;5.404;2022-09-09T01:33:58;2.20;;;1.65;;
36009;SDS011;22076;52.182;5.404;2022-09-09T01:36:26;5.28;;;1.77;;
36009;SDS011;22076;52.182;5.404;2022-09-09T01:38:58;2.13;;;1.58;;
36009;SDS011;22076;52.182;5.404;2022-09-09T01:41:25;3.50;;;1.85;;
36009;SDS011;22076;52.182;5.404;2022-09-09T01:43:53;4.75;;;2.15;;
36009;SDS011;22076;52.182;5.404;2022-09-09T01:46:19;3.72;;;1.50;;
36009;SDS011;22076;52.182;5.404;2022-09-09T01:48:49;4.80;;;2.30;;
36009;SDS011;22076;52.182;5.404;2022-09-09T01:51:16;5.53;;;2.42;;
36009;SDS011;22076;52.182;5.404;2022-09-09T01:53:42;3.83;;;1.95;;
36009;SDS011;22076;52.182;5.404;2022-09-09T01:56:11;5.80;;;2.50;;
36009;SDS011;22076;52.182;5.404;2022-09-09T01:58:46;4.30;;;2.22;;
36009;SDS011;22076;52.182;5.404;2022-09-09T02:01:27;3.00;;;2.15;;
36009;SDS011;22076;52.182;5.404;2022-09-09T02:03:58;2.45;;;1.60;;
36009;SDS011;22076;52.182;5.404;2022-09-09T02:06:30;5.88;;;2.40;;
36009;SDS011;22076;52.182;5.404;2022-09-09T02:08:58;6.32;;;2.30;;
36009;SDS011;22076;52.182;5.404;2022-09-09T02:11:26;4.22;;;2.00;;
36009;SDS011;22076;52.182;5.404;2022-09-09T02:13:55;4.50;;;2.45;;
36009;SDS011;22076;52.182;5.404;2022-09-09T02:16:27;3.60;;;2.03;;
36009;SDS011;22076;52.182;5.404;2022-09-09T02:18:57;4.97;;;1.80;;
36009;SDS011;22076;52.182;5.404;2022-09-09T02:21:28;3.20;;;1.98;;
36009;SDS011;22076;52.182;5.404;2022-09-09T02:23:55;4.18;;;2.15;;
36009;SDS011;22076;52.182;5.404;2022-09-09T02:26:23;3.15;;;2.20;;
36009;SDS011;22076;52.182;5.404;2022-09-09T02:28:50;3.70;;;2.30;;
36009;SDS011;22076;52.182;5.404;2022-09-09T02:31:20;9.23;;;2.97;;
36009;SDS011;22076;52.182;5.404;2022-09-09T02:33:50;4.20;;;2.92;;
36009;SDS011;22076;52.182;5.404;2022-09-09T02:36:18;7.30;;;2.97;;
36009;SDS011;22076;52.182;5.404;2022-09-09T02:38:46;4.68;;;2.97;;
36009;SDS011;22076;52.182;5.404;2022-09-09T02:41:18;3.50;;;1.85;;
36009;SDS011;22076;52.182;5.404;2022-09-09T02:43:45;6.20;;;3.33;;
36009;SDS011;22076;52.182;5.404;2022-09-09T02:46:15;4.15;;;2.67;;
36009;SDS011;22076;52.182;5.404;2022-09-09T02:48:56;5.28;;;3.28;;
36009;SDS011;22076;52.182;5.404;2022-09-09T02:51:27;8.85;;;3.85;;
36009;SDS011;22076;52.182;5.404;2022-09-09T02:56:28;6.28;;;3.67;;
36009;SDS011;22076;52.182;5.404;2022-09-09T02:58:57;2.42;;;1.88;;
36009;SDS011;22076;52.182;5.404;2022-09-09T03:01:25;6.82;;;3.35;;
36009;SDS011;22076;52.182;5.404;2022-09-09T03:03:52;5.03;;;3.22;;
36009;SDS011;22076;52.182;5.404;2022-09-09T03:06:20;4.82;;;2.50;;
36009;SDS011;22076;52.182;5.404;2022-09-09T03:08:46;5.40;;;3.17;;
36009;SDS011;22076;52.182;5.404;2022-09-09T03:11:14;4.80;;;3.25;;
36009;SDS011;22076;52.182;5.404;2022-09-09T03:13:41;8.13;;;3.47;;
36009;SDS011;22076;52.182;5.404;2022-09-09T03:16:08;3.95;;;2.25;;
36009;SDS011;22076;52.182;5.404;2022-09-09T03:18:35;4.82;;;2.83;;
36009;SDS011;22076;52.182;5.404;2022-09-09T03:21:02;4.93;;;3.92;;
36009;SDS011;22076;52.182;5.404;2022-09-09T03:23:29;7.10;;;3.60;;
36009;SDS011;22076;52.182;5.404;2022-09-09T03:25:55;10.38;;;5.10;;
36009;SDS011;22076;52.182;5.404;2022-09-09T03:28:23;6.32;;;3.83;;
36009;SDS011;22076;52.182;5.404;2022-09-09T03:30:57;6.47;;;3.00;;
36009;SDS011;22076;52.182;5.404;2022-09-09T03:33:25;3.17;;;2.80;;
36009;SDS011;22076;52.182;5.404;2022-09-09T03:35:52;5.43;;;3.75;;
36009;SDS011;22076;52.182;5.404;2022-09-09T03:38:21;4.82;;;3.00;;
36009;SDS011;22076;52.182;5.404;2022-09-09T03:40:49;6.60;;;3.30;;
36009;SDS011;22076;52.182;5.404;2022-09-09T03:43:16;5.10;;;3.88;;
36009;SDS011;22076;52.182;5.404;2022-09-09T03:45:45;8.35;;;4.32;;
36009;SDS011;22076;52.182;5.404;2022-09-09T03:48:12;6.45;;;3.75;;
36009;SDS011;22076;52.182;5.404;2022-09-09T03:50:39;11.38;;;5.43;;
36009;SDS011;22076;52.182;5.404;2022-09-09T03:53:11;4.35;;;3.63;;
36009;SDS011;22076;52.182;5.404;2022-09-09T03:55:38;5.82;;;3.25;;
36009;SDS011;22076;52.182;5.404;2022-09-09T03:58:06;7.97;;;4.57;;
36009;SDS011;22076;52.182;5.404;2022-09-09T04:00:33;7.82;;;4.30;;
36009;SDS011;22076;52.182;5.404;2022-09-09T04:02:59;10.82;;;5.07;;
36009;SDS011;22076;52.182;5.404;2022-09-09T04:05:26;5.68;;;4.00;;
36009;SDS011;22076;52.182;5.404;2022-09-09T04:07:53;10.32;;;5.00;;
36009;SDS011;22076;52.182;5.404;2022-09-09T04:10:21;4.78;;;3.15;;
36009;SDS011;22076;52.182;5.404;2022-09-09T04:12:48;3.90;;;2.83;;
36009;SDS011;22076;52.182;5.404;2022-09-09T04:15:14;6.75;;;3.83;;
36009;SDS011;22076;52.182;5.404;2022-09-09T04:17:43;8.43;;;4.30;;
36009;SDS011;22076;52.182;5.404;2022-09-09T04:20:10;5.55;;;3.63;;
36009;SDS011;22076;52.182;5.404;2022-09-09T04:22:37;7.80;;;4.95;;
36009;SDS011;22076;52.182;5.404;2022-09-09T04:25:04;6.22;;;4.05;;
36009;SDS011;22076;52.182;5.404;2022-09-09T04:27:32;6.45;;;3.10;;
36009;SDS011;22076;52.182;5.404;2022-09-09T04:30:00;7.30;;;5.13;;
36009;SDS011;22076;52.182;5.404;2022-09-09T04:32:26;8.30;;;4.15;;
36009;SDS011;22076;52.182;5.404;2022-09-09T04:34:53;5.43;;;3.80;;
36009;SDS011;22076;52.182;5.404;2022-09-09T04:37:20;7.05;;;3.45;;
36009;SDS011;22076;52.182;5.404;2022-09-09T04:39:46;6.43;;;4.90;;
36009;SDS011;22076;52.182;5.404;2022-09-09T04:42:13;11.98;;;4.30;;
36009;SDS011;22076;52.182;5.404;2022-09-09T04:44:41;7.68;;;3.17;;
36009;SDS011;22076;52.182;5.404;2022-09-09T04:47:07;5.32;;;3.40;;
36009;SDS011;22076;52.182;5.404;2022-09-09T04:49:41;4.90;;;3.20;;
36009;SDS011;22076;52.182;5.404;2022-09-09T04:52:08;9.88;;;3.88;;
36009;SDS011;22076;52.182;5.404;2022-09-09T04:54:35;6.97;;;3.65;;
36009;SDS011;22076;52.182;5.404;2022-09-09T04:57:01;9.48;;;5.22;;
36009;SDS011;22076;52.182;5.404;2022-09-09T04:59:28;4.80;;;3.75;;
36009;SDS011;22076;52.182;5.404;2022-09-09T05:01:56;8.07;;;3.95;;
36009;SDS011;22076;52.182;5.404;2022-09-09T05:04:23;8.02;;;4.65;;
36009;SDS011;22076;52.182;5.404;2022-09-09T05:06:49;8.32;;;3.70;;
36009;SDS011;22076;52.182;5.404;2022-09-09T05:09:16;9.32;;;3.97;;
36009;SDS011;22076;52.182;5.404;2022-09-09T05:11:43;6.70;;;2.95;;
36009;SDS011;22076;52.182;5.404;2022-09-09T05:14:09;8.50;;;2.92;;
36009;SDS011;22076;52.182;5.404;2022-09-09T05:16:37;8.23;;;3.88;;
36009;SDS011;22076;52.182;5.404;2022-09-09T05:19:05;8.20;;;2.97;;
36009;SDS011;22076;52.182;5.404;2022-09-09T05:21:33;10.68;;;4.20;;
36009;SDS011;22076;52.182;5.404;2022-09-09T05:24:00;9.73;;;3.22;;
36009;SDS011;22076;52.182;5.404;2022-09-09T05:26:27;6.95;;;4.32;;
36009;SDS011;22076;52.182;5.404;2022-09-09T05:28:54;5.18;;;2.92;;
36009;SDS011;22076;52.182;5.404;2022-09-09T05:31:22;6.18;;;3.65;;
36009;SDS011;22076;52.182;5.404;2022-09-09T05:33:50;7.85;;;3.30;;
36009;SDS011;22076;52.182;5.404;2022-09-09T05:36:19;6.47;;;3.40;;
36009;SDS011;22076;52.182;5.404;2022-09-09T05:38:46;7.45;;;3.33;;
36009;SDS011;22076;52.182;5.404;2022-09-09T05:41:14;11.63;;;4.10;;
36009;SDS011;22076;52.182;5.404;2022-09-09T05:43:42;6.18;;;3.72;;
36009;SDS011;22076;52.182;5.404;2022-09-09T05:46:13;13.70;;;4.07;;
36009;SDS011;22076;52.182;5.404;2022-09-09T05:48:41;7.75;;;2.70;;
36009;SDS011;22076;52.182;5.404;2022-09-09T05:51:09;5.68;;;2.85;;
36009;SDS011;22076;52.182;5.404;2022-09-09T05:53:40;5.30;;;3.38;;
36009;SDS011;22076;52.182;5.404;2022-09-09T05:56:07;10.27;;;3.00;;
36009;SDS011;22076;52.182;5.404;2022-09-09T05:58:37;5.57;;;2.85;;
36009;SDS011;22076;52.182;5.404;2022-09-09T06:01:04;7.38;;;3.42;;
36009;SDS011;22076;52.182;5.404;2022-09-09T06:03:33;5.72;;;3.10;;
36009;SDS011;22076;52.182;5.404;2022-09-09T06:06:00;5.18;;;3.30;;
36009;SDS011;22076;52.182;5.404;2022-09-09T06:08:30;7.13;;;3.65;;
36009;SDS011;22076;52.182;5.404;2022-09-09T06:11:01;11.23;;;4.30;;
36009;SDS011;22076;52.182;5.404;2022-09-09T06:13:29;5.97;;;3.58;;
36009;SDS011;22076;52.182;5.404;2022-09-09T06:15:56;10.77;;;3.38;;
36009;SDS011;22076;52.182;5.404;2022-09-09T06:18:23;8.13;;;3.65;;
36009;SDS011;22076;52.182;5.404;2022-09-09T06:20:54;11.85;;;4.57;;
36009;SDS011;22076;52.182;5.404;2022-09-09T06:23:21;5.93;;;3.08;;
36009;SDS011;22076;52.182;5.404;2022-09-09T06:25:48;8.45;;;3.40;;
36009;SDS011;22076;52.182;5.404;2022-09-09T06:28:17;10.65;;;4.93;;
36009;SDS011;22076;52.182;5.404;2022-09-09T06:30:44;10.52;;;3.90;;
36009;SDS011;22076;52.182;5.404;2022-09-09T06:33:11;5.70;;;3.30;;
36009;SDS011;22076;52.182;5.404;2022-09-09T06:35:37;7.40;;;3.85;;
36009;SDS011;22076;52.182;5.404;2022-09-09T06:38:04;7.68;;;2.67;;
36009;SDS011;22076;52.182;5.404;2022-09-09T06:40:30;8.13;;;2.60;;
36009;SDS011;22076;52.182;5.404;2022-09-09T06:42:59;10.30;;;3.47;;
36009;SDS011;22076;52.182;5.404;2022-09-09T06:45:27;9.30;;;3.05;;
36009;SDS011;22076;52.182;5.404;2022-09-09T06:47:54;8.93;;;3.75;;
36009;SDS011;22076;52.182;5.404;2022-09-09T06:50:21;4.07;;;2.20;;
36009;SDS011;22076;52.182;5.404;2022-09-09T06:52:48;8.23;;;2.90;;
36009;SDS011;22076;52.182;5.404;2022-09-09T06:55:15;7.32;;;2.88;;
36009;SDS011;22076;52.182;5.404;2022-09-09T06:57:43;4.40;;;2.13;;
36009;SDS011;22076;52.182;5.404;2022-09-09T07:00:10;10.55;;;2.70;;
36009;SDS011;22076;52.182;5.404;2022-09-09T07:02:40;9.63;;;3.10;;
36009;SDS011;22076;52.182;5.404;2022-09-09T07:05:07;10.40;;;3.25;;
36009;SDS011;22076;52.182;5.404;2022-09-09T07:07:34;15.95;;;3.30;;
36009;SDS011;22076;52.182;5.404;2022-09-09T07:10:02;10.35;;;2.83;;
36009;SDS011;22076;52.182;5.404;2022-09-09T07:12:29;11.95;;;3.58;;
36009;SDS011;22076;52.182;5.404;2022-09-09T07:14:56;12.00;;;3.92;;
36009;SDS011;22076;52.182;5.404;2022-09-09T07:17:22;7.88;;;3.67;;
36009;SDS011;22076;52.182;5.404;2022-09-09T07:19:50;9.05;;;3.53;;
36009;SDS011;22076;52.182;5.404;2022-09-09T07:22:17;5.65;;;2.25;;
36009;SDS011;22076;52.182;5.404;2022-09-09T07:24:45;9.80;;;3.00;;
36009;SDS011;22076;52.182;5.404;2022-09-09T07:27:11;13.35;;;3.05;;
36009;SDS011;22076;52.182;5.404;2022-09-09T07:29:38;11.55;;;3.58;;
36009;SDS011;22076;52.182;5.404;2022-09-09T07:32:05;8.80;;;2.90;;
36009;SDS011;22076;52.182;5.404;2022-09-09T07:34:32;7.63;;;2.42;;
36009;SDS011;22076;52.182;5.404;2022-09-09T07:37:01;6.88;;;2.25;;
36009;SDS011;22076;52.182;5.404;2022-09-09T07:39:27;10.82;;;3.33;;
36009;SDS011;22076;52.182;5.404;2022-09-09T07:41:55;5.57;;;2.13;;
36009;SDS011;22076;52.182;5.404;2022-09-09T07:44:24;11.70;;;3.25;;
36009;SDS011;22076;52.182;5.404;2022-09-09T07:46:52;8.75;;;2.95;;
36009;SDS011;22076;52.182;5.404;2022-09-09T07:49:18;8.38;;;2.50;;
36009;SDS011;22076;52.182;5.404;2022-09-09T07:51:46;18.63;;;3.13;;
36009;SDS011;22076;52.182;5.404;2022-09-09T07:54:16;8.48;;;2.65;;
36009;SDS011;22076;52.182;5.404;2022-09-09T07:56:45;9.27;;;2.72;;
36009;SDS011;22076;52.182;5.404;2022-09-09T07:59:13;9.57;;;3.20;;
36009;SDS011;22076;52.182;5.404;2022-09-09T08:01:41;10.93;;;2.58;;
36009;SDS011;22076;52.182;5.404;2022-09-09T08:04:09;13.05;;;3.60;;
36009;SDS011;22076;52.182;5.404;2022-09-09T08:06:41;6.88;;;2.85;;
36009;SDS011;22076;52.182;5.404;2022-09-09T08:09:09;11.38;;;3.17;;
36009;SDS011;22076;52.182;5.404;2022-09-09T08:11:38;8.10;;;2.60;;
36009;SDS011;22076;52.182;5.404;2022-09-09T08:14:05;8.82;;;2.70;;
36009;SDS011;22076;52.182;5.404;2022-09-09T08:16:33;9.88;;;2.55;;
36009;SDS011;22076;52.182;5.404;2022-09-09T08:19:02;9.40;;;2.85;;
36009;SDS011;22076;52.182;5.404;2022-09-09T08:21:30;8.77;;;3.10;;
36009;SDS011;22076;52.182;5.404;2022-09-09T08:23:59;8.05;;;2.58;;
36009;SDS011;22076;52.182;5.404;2022-09-09T08:26:27;8.07;;;2.75;;
36009;SDS011;22076;52.182;5.404;2022-09-09T08:28:56;7.35;;;2.67;;
36009;SDS011;22076;52.182;5.404;2022-09-09T08:31:25;10.65;;;2.22;;
36009;SDS011;22076;52.182;5.404;2022-09-09T08:33:54;13.05;;;2.65;;
36009;SDS011;22076;52.182;5.404;2022-09-09T08:36:22;11.32;;;3.03;;
36009;SDS011;22076;52.182;5.404;2022-09-09T08:38:51;8.40;;;2.67;;
36009;SDS011;22076;52.182;5.404;2022-09-09T08:41:31;16.85;;;3.85;;
36009;SDS011;22076;52.182;5.404;2022-09-09T08:44:07;12.20;;;2.42;;
36009;SDS011;22076;52.182;5.404;2022-09-09T08:46:38;8.80;;;2.13;;
36009;SDS011;22076;52.182;5.404;2022-09-09T08:49:14;10.07;;;2.78;;
36009;SDS011;22076;52.182;5.404;2022-09-09T08:51:47;8.63;;;2.47;;
36009;SDS011;22076;52.182;5.404;2022-09-09T08:54:15;12.00;;;2.75;;
36009;SDS011;22076;52.182;5.404;2022-09-09T08:56:42;9.27;;;2.72;;
36009;SDS011;22076;52.182;5.404;2022-09-09T08:59:11;9.38;;;2.60;;
36009;SDS011;22076;52.182;5.404;2022-09-09T09:01:50;10.82;;;2.47;;
36009;SDS011;22076;52.182;5.404;2022-09-09T09:04:26;7.53;;;1.90;;
36009;SDS011;22076;52.182;5.404;2022-09-09T09:07:02;10.10;;;2.50;;
36009;SDS011;22076;52.182;5.404;2022-09-09T09:09:35;6.50;;;2.08;;
36009;SDS011;22076;52.182;5.404;2022-09-09T09:12:11;9.40;;;3.05;;
36009;SDS011;22076;52.182;5.404;2022-09-09T09:14:43;6.32;;;2.40;;
36009;SDS011;22076;52.182;5.404;2022-09-09T09:17:13;11.77;;;2.60;;
36009;SDS011;22076;52.182;5.404;2022-09-09T09:19:41;13.07;;;2.90;;
36009;SDS011;22076;52.182;5.404;2022-09-09T09:22:10;15.25;;;2.50;;
36009;SDS011;22076;52.182;5.404;2022-09-09T09:24:44;8.43;;;2.40;;
36009;SDS011;22076;52.182;5.404;2022-09-09T09:27:14;8.98;;;2.00;;
36009;SDS011;22076;52.182;5.404;2022-09-09T09:29:43;7.80;;;2.17;;
36009;SDS011;22076;52.182;5.404;2022-09-09T09:32:10;11.38;;;2.95;;
36009;SDS011;22076;52.182;5.404;2022-09-09T09:34:40;7.40;;;2.03;;
36009;SDS011;22076;52.182;5.404;2022-09-09T09:37:11;8.73;;;2.97;;
36009;SDS011;22076;52.182;5.404;2022-09-09T09:39:42;8.55;;;2.58;;
36009;SDS011;22076;52.182;5.404;2022-09-09T09:42:09;6.20;;;2.42;;
36009;SDS011;22076;52.182;5.404;2022-09-09T09:44:39;17.13;;;5.80;;
36009;SDS011;22076;52.182;5.404;2022-09-09T09:47:10;11.35;;;2.72;;
36009;SDS011;22076;52.182;5.404;2022-09-09T09:49:38;12.35;;;2.50;;
36009;SDS011;22076;52.182;5.404;2022-09-09T09:52:05;13.05;;;2.72;;
36009;SDS011;22076;52.182;5.404;2022-09-09T09:54:33;10.00;;;2.28;;
36009;SDS011;22076;52.182;5.404;2022-09-09T09:57:13;8.75;;;2.20;;
36009;SDS011;22076;52.182;5.404;2022-09-09T09:59:40;8.13;;;2.25;;
36009;SDS011;22076;52.182;5.404;2022-09-09T10:02:16;9.13;;;2.33;;
36009;SDS011;22076;52.182;5.404;2022-09-09T10:04:45;8.32;;;2.30;;
36009;SDS011;22076;52.182;5.404;2022-09-09T10:07:12;10.18;;;2.55;;
36009;SDS011;22076;52.182;5.404;2022-09-09T10:09:42;8.43;;;2.50;;
36009;SDS011;22076;52.182;5.404;2022-09-09T10:12:13;16.15;;;3.22;;
36009;SDS011;22076;52.182;5.404;2022-09-09T10:14:51;9.82;;;2.55;;
36009;SDS011;22076;52.182;5.404;2022-09-09T10:17:26;5.95;;;2.40;;
36009;SDS011;22076;52.182;5.404;2022-09-09T10:20:00;8.48;;;2.33;;
36009;SDS011;22076;52.182;5.404;2022-09-09T10:22:40;14.32;;;2.55;;
36009;SDS011;22076;52.182;5.404;2022-09-09T10:25:17;8.63;;;2.15;;
36009;SDS011;22076;52.182;5.404;2022-09-09T10:27:55;12.63;;;4.28;;
36009;SDS011;22076;52.182;5.404;2022-09-09T10:30:39;12.93;;;2.95;;
36009;SDS011;22076;52.182;5.404;2022-09-09T10:33:16;10.80;;;2.55;;
36009;SDS011;22076;52.182;5.404;2022-09-09T10:35:50;8.25;;;2.30;;
36009;SDS011;22076;52.182;5.404;2022-09-09T10:38:19;8.25;;;2.17;;
36009;SDS011;22076;52.182;5.404;2022-09-09T10:41:13;7.25;;;1.85;;
36009;SDS011;22076;52.182;5.404;2022-09-09T10:43:46;11.55;;;2.72;;
36009;SDS011;22076;52.182;5.404;2022-09-09T10:46:22;11.02;;;2.60;;
36009;SDS011;22076;52.182;5.404;2022-09-09T10:49:02;7.78;;;2.90;;
36009;SDS011;22076;52.182;5.404;2022-09-09T10:51:36;6.78;;;2.10;;
36009;SDS011;22076;52.182;5.404;2022-09-09T10:54:14;8.10;;;2.15;;
36009;SDS011;22076;52.182;5.404;2022-09-09T10:56:50;8.35;;;2.72;;
36009;SDS011;22076;52.182;5.404;2022-09-09T10:59:22;6.35;;;2.88;;
36009;SDS011;22076;52.182;5.404;2022-09-09T11:01:52;6.15;;;2.55;;
36009;SDS011;22076;52.182;5.404;2022-09-09T11:04:22;7.20;;;2.40;;
36009;SDS011;22076;52.182;5.404;2022-09-09T11:06:52;6.45;;;2.05;;
36009;SDS011;22076;52.182;5.404;2022-09-09T11:09:21;6.32;;;2.20;;
36009;SDS011;22076;52.182;5.404;2022-09-09T11:11:51;8.55;;;2.35;;
36009;SDS011;22076;52.182;5.404;2022-09-09T11:14:19;7.72;;;2.22;;
36009;SDS011;22076;52.182;5.404;2022-09-09T11:16:50;9.13;;;2.85;;
36009;SDS011;22076;52.182;5.404;2022-09-09T11:19:20;7.10;;;2.47;;
36009;SDS011;22076;52.182;5.404;2022-09-09T11:21:51;8.13;;;2.50;;
36009;SDS011;22076;52.182;5.404;2022-09-09T11:24:20;11.20;;;3.60;;
36009;SDS011;22076;52.182;5.404;2022-09-09T11:26:51;7.63;;;2.22;;
36009;SDS011;22076;52.182;5.404;2022-09-09T11:29:26;9.45;;;3.03;;
36009;SDS011;22076;52.182;5.404;2022-09-09T11:32:07;10.70;;;2.45;;
36009;SDS011;22076;52.182;5.404;2022-09-09T11:34:47;6.78;;;2.67;;
36009;SDS011;22076;52.182;5.404;2022-09-09T11:37:22;11.45;;;3.45;;
36009;SDS011;22076;52.182;5.404;2022-09-09T11:40:07;8.90;;;3.38;;
36009;SDS011;22076;52.182;5.404;2022-09-09T11:42:35;8.77;;;2.30;;
36009;SDS011;22076;52.182;5.404;2022-09-09T11:45:09;5.78;;;2.58;;
36009;SDS011;22076;52.182;5.404;2022-09-09T11:47:37;4.25;;;2.13;;
36009;SDS011;22076;52.182;5.404;2022-09-09T11:50:09;6.70;;;2.20;;
36009;SDS011;22076;52.182;5.404;2022-09-09T11:52:37;9.45;;;2.47;;
36009;SDS011;22076;52.182;5.404;2022-09-09T11:55:10;5.70;;;3.00;;
36009;SDS011;22076;52.182;5.404;2022-09-09T11:57:40;8.95;;;2.30;;
36009;SDS011;22076;52.182;5.404;2022-09-09T12:02:59;9.93;;;2.90;;
36009;SDS011;22076;52.182;5.404;2022-09-09T12:05:36;6.72;;;2.70;;
36009;SDS011;22076;52.182;5.404;2022-09-09T12:08:04;10.30;;;4.05;;
36009;SDS011;22076;52.182;5.404;2022-09-09T12:10:32;6.90;;;3.42;;
36009;SDS011;22076;52.182;5.404;2022-09-09T12:13:07;7.53;;;3.00;;
36009;SDS011;22076;52.182;5.404;2022-09-09T12:15:36;6.55;;;3.17;;
36009;SDS011;22076;52.182;5.404;2022-09-09T12:18:14;7.50;;;2.53;;
36009;SDS011;22076;52.182;5.404;2022-09-09T12:20:50;5.57;;;2.20;;
36009;SDS011;22076;52.182;5.404;2022-09-09T12:23:27;8.55;;;2.45;;
36009;SDS011;22076;52.182;5.404;2022-09-09T12:26:01;9.30;;;2.60;;
36009;SDS011;22076;52.182;5.404;2022-09-09T12:28:45;11.52;;;3.28;;
36009;SDS011;22076;52.182;5.404;2022-09-09T12:33:45;7.65;;;3.00;;
36009;SDS011;22076;52.182;5.404;2022-09-09T12:36:14;7.78;;;2.95;;
36009;SDS011;22076;52.182;5.404;2022-09-09T12:38:43;5.55;;;2.50;;
36009;SDS011;22076;52.182;5.404;2022-09-09T12:41:17;7.13;;;2.38;;
36009;SDS011;22076;52.182;5.404;2022-09-09T12:43:45;12.90;;;2.90;;
36009;SDS011;22076;52.182;5.404;2022-09-09T12:46:14;10.43;;;3.50;;
36009;SDS011;22076;52.182;5.404;2022-09-09T12:48:48;5.72;;;2.83;;
36009;SDS011;22076;52.182;5.404;2022-09-09T12:51:18;7.97;;;3.40;;
36009;SDS011;22076;52.182;5.404;2022-09-09T12:53:47;8.45;;;2.92;;
36009;SDS011;22076;52.182;5.404;2022-09-09T12:56:18;6.03;;;2.75;;
36009;SDS011;22076;52.182;5.404;2022-09-09T12:58:46;9.52;;;3.08;;
36009;SDS011;22076;52.182;5.404;2022-09-09T13:01:18;6.45;;;2.88;;
36009;SDS011;22076;52.182;5.404;2022-09-09T13:03:47;5.57;;;2.30;;
36009;SDS011;22076;52.182;5.404;2022-09-09T13:06:18;7.10;;;3.00;;
36009;SDS011;22076;52.182;5.404;2022-09-09T13:08:48;6.78;;;2.17;;
36009;SDS011;22076;52.182;5.404;2022-09-09T13:11:16;7.70;;;2.55;;
36009;SDS011;22076;52.182;5.404;2022-09-09T13:13:51;7.75;;;3.00;;
36009;SDS011;22076;52.182;5.404;2022-09-09T13:16:20;6.20;;;2.50;;
36009;SDS011;22076;52.182;5.404;2022-09-09T13:18:47;9.77;;;2.95;;
36009;SDS011;22076;52.182;5.404;2022-09-09T13:21:14;12.27;;;4.20;;
36009;SDS011;22076;52.182;5.404;2022-09-09T13:23:47;8.52;;;2.58;;
36009;SDS011;22076;52.182;5.404;2022-09-09T13:26:21;5.85;;;2.10;;
36009;SDS011;22076;52.182;5.404;2022-09-09T13:28:49;7.10;;;3.00;;
36009;SDS011;22076;52.182;5.404;2022-09-09T13:31:19;4.38;;;2.17;;
36009;SDS011;22076;52.182;5.404;2022-09-09T13:33:47;8.52;;;2.88;;
36009;SDS011;22076;52.182;5.404;2022-09-09T13:36:14;4.25;;;2.47;;
36009;SDS011;22076;52.182;5.404;2022-09-09T13:38:52;7.82;;;2.20;;
36009;SDS011;22076;52.182;5.404;2022-09-09T13:41:20;7.35;;;2.58;;
36009;SDS011;22076;52.182;5.404;2022-09-09T13:43:48;6.47;;;2.92;;
36009;SDS011;22076;52.182;5.404;2022-09-09T13:46:26;13.65;;;3.83;;
36009;SDS011;22076;52.182;5.404;2022-09-09T13:48:56;7.25;;;2.70;;
36009;SDS011;22076;52.182;5.404;2022-09-09T13:51:35;10.95;;;3.05;;
36009;SDS011;22076;52.182;5.404;2022-09-09T13:54:05;6.85;;;3.35;;
36009;SDS011;22076;52.182;5.404;2022-09-09T13:58:58;4.15;;;2.72;;
36009;SDS011;22076;52.182;5.404;2022-09-09T14:01:25;7.43;;;3.10;;
36009;SDS011;22076;52.182;5.404;2022-09-09T14:03:52;6.45;;;2.90;;
36009;SDS011;22076;52.182;5.404;2022-09-09T14:06:19;5.07;;;2.30;;
36009;SDS011;22076;52.182;5.404;2022-09-09T14:08:47;8.75;;;3.40;;
36009;SDS011;22076;52.182;5.404;2022-09-09T14:11:15;6.55;;;2.65;;
36009;SDS011;22076;52.182;5.404;2022-09-09T14:13:42;7.20;;;3.08;;
36009;SDS011;22076;52.182;5.404;2022-09-09T14:16:09;9.75;;;3.55;;
36009;SDS011;22076;52.182;5.404;2022-09-09T14:18:36;5.78;;;2.42;;
36009;SDS011;22076;52.182;5.404;2022-09-09T14:21:04;10.35;;;2.90;;
36009;SDS011;22076;52.182;5.404;2022-09-09T14:23:30;6.63;;;2.38;;
36009;SDS011;22076;52.182;5.404;2022-09-09T14:25:57;3.20;;;1.90;;
36009;SDS011;22076;52.182;5.404;2022-09-09T14:28:25;7.78;;;2.63;;
36009;SDS011;22076;52.182;5.404;2022-09-09T14:30:53;8.07;;;2.85;;
36009;SDS011;22076;52.182;5.404;2022-09-09T14:33:20;8.75;;;2.65;;
36009;SDS011;22076;52.182;5.404;2022-09-09T14:35:47;8.70;;;2.45;;
36009;SDS011;22076;52.182;5.404;2022-09-09T14:38:14;10.85;;;2.38;;
36009;SDS011;22076;52.182;5.404;2022-09-09T14:40:41;3.33;;;1.77;;
36009;SDS011;22076;52.182;5.404;2022-09-09T14:43:11;7.65;;;3.03;;
36009;SDS011;22076;52.182;5.404;2022-09-09T14:45:40;9.85;;;3.08;;
36009;SDS011;22076;52.182;5.404;2022-09-09T14:48:09;6.40;;;1.85;;
36009;SDS011;22076;52.182;5.404;2022-09-09T14:50:36;9.32;;;2.72;;
36009;SDS011;22076;52.182;5.404;2022-09-09T14:53:05;8.65;;;2.88;;
36009;SDS011;22076;52.182;5.404;2022-09-09T14:55:34;6.43;;;2.50;;
36009;SDS011;22076;52.182;5.404;2022-09-09T14:58:01;4.53;;;2.22;;
36009;SDS011;22076;52.182;5.404;2022-09-09T15:00:28;4.93;;;2.38;;
36009;SDS011;22076;52.182;5.404;2022-09-09T15:02:57;7.57;;;3.42;;
36009;SDS011;22076;52.182;5.404;2022-09-09T15:05:23;11.98;;;4.28;;
36009;SDS011;22076;52.182;5.404;2022-09-09T15:07:50;7.53;;;3.67;;
36009;SDS011;22076;52.182;5.404;2022-09-09T15:10:17;7.07;;;3.50;;
36009;SDS011;22076;52.182;5.404;2022-09-09T15:12:43;6.38;;;2.55;;